sensor_id;sensor_type;location;lat;lon;timestamp;pressure;altitude;pressure_sealevel;temperature;humidity
74542;BME280;63015;45.378;20.360;2023-02-15T00:00:14;102520.50;;;0.55;76.96
74542;BME280;63015;45.378;20.360;2023-02-15T00:02:15;102517.38;;;0.59;76.81
74542;BME280;63015;45.378;20.360;2023-02-15T00:04:19;102517.16;;;0.56;77.08
74542;BME280;63015;45.378;20.360;2023-02-15T00:06:20;102527.31;;;0.54;77.98
74542;BME280;63015;45.378;20.360;2023-02-15T00:08:21;102525.53;;;0.53;77.44
74542;BME280;63015;45.378;20.360;2023-02-15T00:10:21;102526.66;;;0.57;76.75
74542;BME280;63015;45.378;20.360;2023-02-15T00:12:23;102523.63;;;0.62;75.96
74542;BME280;63015;45.378;20.360;2023-02-15T00:14:24;102522.41;;;0.57;76.57
74542;BME280;63015;45.378;20.360;2023-02-15T00:16:24;102530.75;;;0.55;76.93
74542;BME280;63015;45.378;20.360;2023-02-15T00:18:25;102528.75;;;0.51;77.64
74542;BME280;63015;45.378;20.360;2023-02-15T00:20:25;102528.75;;;0.51;77.50
74542;BME280;63015;45.378;20.360;2023-02-15T00:22:26;102523.16;;;0.56;76.52
74542;BME280;63015;45.378;20.360;2023-02-15T00:24:26;102533.31;;;0.55;76.45
74542;BME280;63015;45.378;20.360;2023-02-15T00:26:27;102530.97;;;0.58;75.99
74542;BME280;63015;45.378;20.360;2023-02-15T00:28:29;102528.84;;;0.52;76.70
74542;BME280;63015;45.378;20.360;2023-02-15T00:30:30;102529.53;;;0.49;76.94
74542;BME280;63015;45.378;20.360;2023-02-15T00:32:31;102531.22;;;0.49;76.94
74542;BME280;63015;45.378;20.360;2023-02-15T00:34:32;102524.97;;;0.57;75.60
74542;BME280;63015;45.378;20.360;2023-02-15T00:36:33;102532.56;;;0.56;75.81
74542;BME280;63015;45.378;20.360;2023-02-15T00:38:34;102534.75;;;0.51;76.84
74542;BME280;63015;45.378;20.360;2023-02-15T00:40:35;102538.78;;;0.47;76.63
74542;BME280;63015;45.378;20.360;2023-02-15T00:42:35;102534.44;;;0.46;76.90
74542;BME280;63015;45.378;20.360;2023-02-15T00:44:36;102531.06;;;0.47;76.50
74542;BME280;63015;45.378;20.360;2023-02-15T00:46:36;102537.13;;;0.48;76.34
74542;BME280;63015;45.378;20.360;2023-02-15T00:48:37;102530.97;;;0.46;76.62
74542;BME280;63015;45.378;20.360;2023-02-15T00:50:38;102530.50;;;0.40;76.83
74542;BME280;63015;45.378;20.360;2023-02-15T00:52:38;102515.56;;;0.34;77.25
74542;BME280;63015;45.378;20.360;2023-02-15T00:54:39;102527.72;;;0.37;77.61
74542;BME280;63015;45.378;20.360;2023-02-15T00:56:39;102528.38;;;0.34;77.58
74542;BME280;63015;45.378;20.360;2023-02-15T00:58:40;102528.84;;;0.28;77.72
74542;BME280;63015;45.378;20.360;2023-02-15T01:00:44;102528.97;;;0.42;76.35
74542;BME280;63015;45.378;20.360;2023-02-15T01:02:45;102522.94;;;0.41;76.38
74542;BME280;63015;45.378;20.360;2023-02-15T01:04:46;102522.81;;;0.40;76.54
74542;BME280;63015;45.378;20.360;2023-02-15T01:06:46;102512.66;;;0.29;77.07
74542;BME280;63015;45.378;20.360;2023-02-15T01:08:47;102524.47;;;0.27;77.32
74542;BME280;63015;45.378;20.360;2023-02-15T01:10:48;102515.47;;;0.32;76.61
74542;BME280;63015;45.378;20.360;2023-02-15T01:12:50;102513.09;;;0.36;76.17
74542;BME280;63015;45.378;20.360;2023-02-15T01:14:51;102509.41;;;0.32;76.91
74542;BME280;63015;45.378;20.360;2023-02-15T01:16:53;102510.06;;;0.29;76.94
74542;BME280;63015;45.378;20.360;2023-02-15T01:18:54;102511.97;;;0.20;77.18
74542;BME280;63015;45.378;20.360;2023-02-15T01:20:55;102506.63;;;0.29;76.21
74542;BME280;63015;45.378;20.360;2023-02-15T01:22:56;102511.63;;;0.15;77.25
74542;BME280;63015;45.378;20.360;2023-02-15T01:24:57;102511.19;;;0.21;77.19
74542;BME280;63015;45.378;20.360;2023-02-15T01:26:58;102511.97;;;0.20;77.34
74542;BME280;63015;45.378;20.360;2023-02-15T01:29:00;102505.13;;;0.09;77.49
74542;BME280;63015;45.378;20.360;2023-02-15T01:31:08;102511.63;;;0.15;77.17
74542;BME280;63015;45.378;20.360;2023-02-15T01:33:10;102504.94;;;0.18;76.51
74542;BME280;63015;45.378;20.360;2023-02-15T01:35:17;102497.50;;;0.21;76.25
74542;BME280;63015;45.378;20.360;2023-02-15T01:37:18;102505.97;;;0.20;76.19
74542;BME280;63015;45.378;20.360;2023-02-15T01:39:19;102500.16;;;0.22;76.10
74542;BME280;63015;45.378;20.360;2023-02-15T01:41:19;102501.72;;;0.20;76.38
74542;BME280;63015;45.378;20.360;2023-02-15T01:43:20;102504.81;;;0.16;76.49
74542;BME280;63015;45.378;20.360;2023-02-15T01:45:23;102497.34;;;0.19;75.74
74542;BME280;63015;45.378;20.360;2023-02-15T01:47:44;102506.63;;;0.17;76.31
74542;BME280;63015;45.378;20.360;2023-02-15T01:49:46;102510.72;;;0.15;76.52
74542;BME280;63015;45.378;20.360;2023-02-15T01:51:48;102504.94;;;0.18;76.08
74542;BME280;63015;45.378;20.360;2023-02-15T01:56:21;102503.50;;;0.21;75.58
74542;BME280;63015;45.378;20.360;2023-02-15T01:58:26;102501.03;;;0.11;76.38
74542;BME280;63015;45.378;20.360;2023-02-15T02:00:27;102501.13;;;0.12;76.39
74542;BME280;63015;45.378;20.360;2023-02-15T02:02:28;102501.13;;;0.12;76.33
74542;BME280;63015;45.378;20.360;2023-02-15T02:04:40;102498.94;;;0.17;75.38
74542;BME280;63015;45.378;20.360;2023-02-15T02:06:41;102494.09;;;0.10;76.30
74542;BME280;63015;45.378;20.360;2023-02-15T02:08:43;102496.53;;;-0.04;77.14
74542;BME280;63015;45.378;20.360;2023-02-15T02:10:43;102495.72;;;-0.03;77.47
74542;BME280;63015;45.378;20.360;2023-02-15T02:12:47;102493.53;;;0.02;76.63
74542;BME280;63015;45.378;20.360;2023-02-15T02:14:49;102499.44;;;0.01;76.90
74542;BME280;63015;45.378;20.360;2023-02-15T02:30:37;102488.00;;;0.08;75.57
74542;BME280;63015;45.378;20.360;2023-02-15T02:35:24;102486.41;;;0.10;75.04
74542;BME280;63015;45.378;20.360;2023-02-15T02:37:34;102487.19;;;0.09;75.09
74542;BME280;63015;45.378;20.360;2023-02-15T02:42:05;102484.88;;;0.12;74.50
74542;BME280;63015;45.378;20.360;2023-02-15T02:44:25;102488.41;;;0.14;74.23
74542;BME280;63015;45.378;20.360;2023-02-15T02:46:33;102486.88;;;0.16;74.14
74542;BME280;63015;45.378;20.360;2023-02-15T02:48:36;102484.41;;;0.18;73.87
74542;BME280;63015;45.378;20.360;2023-02-15T02:50:39;102485.19;;;0.16;73.72
74542;BME280;63015;45.378;20.360;2023-02-15T02:52:41;102493.03;;;0.18;73.86
74542;BME280;63015;45.378;20.360;2023-02-15T02:54:42;102486.09;;;0.17;73.72
74542;BME280;63015;45.378;20.360;2023-02-15T02:56:46;102494.69;;;0.18;73.48
74542;BME280;63015;45.378;20.360;2023-02-15T02:58:59;102492.00;;;0.16;73.34
74542;BME280;63015;45.378;20.360;2023-02-15T03:01:24;102488.41;;;0.14;73.65
74542;BME280;63015;45.378;20.360;2023-02-15T03:03:35;102495.44;;;0.16;73.30
74542;BME280;63015;45.378;20.360;2023-02-15T03:05:41;102496.13;;;0.14;73.24
74542;BME280;63015;45.378;20.360;2023-02-15T03:07:49;102495.13;;;0.12;73.21
74542;BME280;63015;45.378;20.360;2023-02-15T03:09:52;102496.78;;;0.11;73.17
74542;BME280;63015;45.378;20.360;2023-02-15T03:11:53;102496.56;;;0.08;73.10
74542;BME280;63015;45.378;20.360;2023-02-15T03:13:56;102490.41;;;0.06;73.25
74542;BME280;63015;45.378;20.360;2023-02-15T03:15:59;102500.66;;;0.06;73.24
74542;BME280;63015;45.378;20.360;2023-02-15T03:18:23;102485.06;;;0.03;73.16
74542;BME280;63015;45.378;20.360;2023-02-15T03:20:29;102497.66;;;0.00;73.10
74542;BME280;63015;45.378;20.360;2023-02-15T03:22:42;102489.97;;;0.00;72.94
74542;BME280;63015;45.378;20.360;2023-02-15T03:25:04;102490.75;;;-0.01;73.40
74542;BME280;63015;45.378;20.360;2023-02-15T03:27:11;102491.63;;;-0.01;73.18
74542;BME280;63015;45.378;20.360;2023-02-15T03:29:20;102482.03;;;-0.03;73.07
74542;BME280;63015;45.378;20.360;2023-02-15T03:31:26;102486.28;;;-0.04;72.78
74542;BME280;63015;45.378;20.360;2023-02-15T03:33:29;102489.63;;;-0.05;73.07
74542;BME280;63015;45.378;20.360;2023-02-15T03:35:38;102493.84;;;-0.05;72.92
74542;BME280;63015;45.378;20.360;2023-02-15T03:37:41;102488.13;;;-0.13;73.02
74542;BME280;63015;45.378;20.360;2023-02-15T03:42:02;102493.25;;;-0.13;72.60
74542;BME280;63015;45.378;20.360;2023-02-15T03:44:11;102493.25;;;-0.13;72.60
74542;BME280;63015;45.378;20.360;2023-02-15T03:46:33;102495.59;;;-0.16;72.56
74542;BME280;63015;45.378;20.360;2023-02-15T03:48:41;102499.69;;;-0.18;72.74
74542;BME280;63015;45.378;20.360;2023-02-15T03:50:42;102486.66;;;-0.21;72.96
74542;BME280;63015;45.378;20.360;2023-02-15T03:53:04;102489.13;;;-0.23;72.88
74542;BME280;63015;45.378;20.360;2023-02-15T03:55:05;102487.97;;;-0.26;72.79
74542;BME280;63015;45.378;20.360;2023-02-15T03:57:15;102488.88;;;-0.26;72.62
74542;BME280;63015;45.378;20.360;2023-02-15T03:59:34;102489.06;;;-0.35;74.08
74542;BME280;63015;45.378;20.360;2023-02-15T04:02:17;102490.63;;;-0.37;73.96
74542;BME280;63015;45.378;20.360;2023-02-15T04:04:22;102485.50;;;-0.37;73.40
74542;BME280;63015;45.378;20.360;2023-02-15T04:06:23;102490.50;;;-0.38;74.13
74542;BME280;63015;45.378;20.360;2023-02-15T04:08:24;102487.69;;;-0.41;74.45
74542;BME280;63015;45.378;20.360;2023-02-15T04:10:44;102495.63;;;-0.38;73.56
74542;BME280;63015;45.378;20.360;2023-02-15T04:12:56;102491.16;;;-0.41;74.22
74542;BME280;63015;45.378;20.360;2023-02-15T04:14:56;102489.16;;;-0.45;74.45
74542;BME280;63015;45.378;20.360;2023-02-15T04:17:16;102491.44;;;-0.48;74.75
74542;BME280;63015;45.378;20.360;2023-02-15T04:19:16;102499.03;;;-0.50;74.47
74542;BME280;63015;45.378;20.360;2023-02-15T04:21:35;102508.84;;;-0.44;73.69
74542;BME280;63015;45.378;20.360;2023-02-15T04:23:55;102508.63;;;-0.47;74.31
74542;BME280;63015;45.378;20.360;2023-02-15T04:26:14;102506.34;;;-0.54;74.98
74542;BME280;63015;45.378;20.360;2023-02-15T04:28:15;102508.56;;;-0.59;75.52
74542;BME280;63015;45.378;20.360;2023-02-15T04:30:17;102502.97;;;-0.65;76.48
74542;BME280;63015;45.378;20.360;2023-02-15T04:32:18;102510.53;;;-0.67;76.61
74542;BME280;63015;45.378;20.360;2023-02-15T04:34:19;102503.38;;;-0.71;77.26
74542;BME280;63015;45.378;20.360;2023-02-15T04:36:19;102508.06;;;-0.65;76.43
74542;BME280;63015;45.378;20.360;2023-02-15T04:38:20;102494.41;;;-0.65;76.05
74542;BME280;63015;45.378;20.360;2023-02-15T04:40:22;102499.50;;;-0.65;76.34
74542;BME280;63015;45.378;20.360;2023-02-15T04:42:23;102501.16;;;-0.66;76.67
74542;BME280;63015;45.378;20.360;2023-02-15T04:44:23;102499.50;;;-0.65;76.79
74542;BME280;63015;45.378;20.360;2023-02-15T04:46:24;102506.34;;;-0.76;78.03
74542;BME280;63015;45.378;20.360;2023-02-15T04:48:24;102507.00;;;-0.79;78.62
74542;BME280;63015;45.378;20.360;2023-02-15T04:50:25;102505.78;;;-0.72;77.68
74542;BME280;63015;45.378;20.360;2023-02-15T04:52:25;102505.41;;;-0.67;77.19
74542;BME280;63015;45.378;20.360;2023-02-15T04:54:26;102502.34;;;-0.73;77.87
74542;BME280;63015;45.378;20.360;2023-02-15T04:56:26;102506.09;;;-0.79;77.97
74542;BME280;63015;45.378;20.360;2023-02-15T04:58:27;102506.88;;;-0.80;78.24
74542;BME280;63015;45.378;20.360;2023-02-15T05:00:28;102501.88;;;-0.79;78.75
74542;BME280;63015;45.378;20.360;2023-02-15T05:02:28;102509.00;;;-0.75;78.00
74542;BME280;63015;45.378;20.360;2023-02-15T05:04:29;102504.09;;;-0.84;78.60
74542;BME280;63015;45.378;20.360;2023-02-15T05:06:29;102502.63;;;-0.80;78.83
74542;BME280;63015;45.378;20.360;2023-02-15T05:08:30;102502.28;;;-0.85;78.78
74542;BME280;63015;45.378;20.360;2023-02-15T05:10:31;102503.44;;;-0.81;78.88
74542;BME280;63015;45.378;20.360;2023-02-15T05:12:32;102503.66;;;-0.78;78.12
74542;BME280;63015;45.378;20.360;2023-02-15T05:14:32;102508.13;;;-0.75;77.74
74542;BME280;63015;45.378;20.360;2023-02-15T05:16:33;102507.59;;;-0.71;77.65
74542;BME280;63015;45.378;20.360;2023-02-15T05:18:33;102499.50;;;-0.65;76.41
74542;BME280;63015;45.378;20.360;2023-02-15T05:20:34;102508.91;;;-0.76;77.65
74542;BME280;63015;45.378;20.360;2023-02-15T05:22:35;102508.91;;;-0.76;78.34
74542;BME280;63015;45.378;20.360;2023-02-15T05:24:35;102509.31;;;-0.82;78.36
74542;BME280;63015;45.378;20.360;2023-02-15T05:26:55;102512.38;;;-0.76;77.92
74542;BME280;63015;45.378;20.360;2023-02-15T05:29:14;102508.78;;;-0.78;78.11
74542;BME280;63015;45.378;20.360;2023-02-15T05:31:17;102504.53;;;-0.77;77.93
74542;BME280;63015;45.378;20.360;2023-02-15T05:33:18;102512.75;;;-0.81;78.34
74542;BME280;63015;45.378;20.360;2023-02-15T05:35:18;102514.13;;;-0.75;78.33
74542;BME280;63015;45.378;20.360;2023-02-15T05:37:19;102516.88;;;-0.84;78.94
74542;BME280;63015;45.378;20.360;2023-02-15T05:39:19;102513.78;;;-0.79;78.40
74542;BME280;63015;45.378;20.360;2023-02-15T05:41:20;102514.78;;;-0.77;78.57
74542;BME280;63015;45.378;20.360;2023-02-15T05:43:21;102527.72;;;-0.76;78.29
74542;BME280;63015;45.378;20.360;2023-02-15T05:45:21;102524.25;;;-0.76;78.39
74542;BME280;63015;45.378;20.360;2023-02-15T05:47:22;102540.66;;;-0.74;77.99
74542;BME280;63015;45.378;20.360;2023-02-15T05:49:23;102532.25;;;-0.84;78.74
74542;BME280;63015;45.378;20.360;2023-02-15T05:51:23;102538.25;;;-0.83;78.98
74542;BME280;63015;45.378;20.360;2023-02-15T05:53:24;102538.47;;;-0.80;78.90
74542;BME280;63015;45.378;20.360;2023-02-15T05:55:24;102538.75;;;-0.77;78.63
74542;BME280;63015;45.378;20.360;2023-02-15T05:57:25;102548.44;;;-0.73;78.38
74542;BME280;63015;45.378;20.360;2023-02-15T05:59:26;102537.50;;;-0.60;77.55
74542;BME280;63015;45.378;20.360;2023-02-15T06:01:26;102547.09;;;-0.57;77.24
74542;BME280;63015;45.378;20.360;2023-02-15T06:03:27;102542.50;;;-0.61;77.53
74542;BME280;63015;45.378;20.360;2023-02-15T06:05:28;102542.19;;;-0.54;77.38
74542;BME280;63015;45.378;20.360;2023-02-15T06:07:29;102541.53;;;-0.52;77.64
74542;BME280;63015;45.378;20.360;2023-02-15T06:09:30;102548.28;;;-0.42;76.66
74542;BME280;63015;45.378;20.360;2023-02-15T06:11:30;102550.69;;;-0.33;76.55
74542;BME280;63015;45.378;20.360;2023-02-15T06:13:31;102552.25;;;-0.23;75.88
74542;BME280;63015;45.378;20.360;2023-02-15T06:15:32;102554.72;;;-0.25;76.35
74542;BME280;63015;45.378;20.360;2023-02-15T06:17:33;102560.03;;;-0.34;77.61
74542;BME280;63015;45.378;20.360;2023-02-15T06:19:33;102557.94;;;-0.27;77.30
74542;BME280;63015;45.378;20.360;2023-02-15T06:21:34;102561.63;;;-0.24;77.24
74542;BME280;63015;45.378;20.360;2023-02-15T06:23:34;102557.75;;;-0.19;77.45
74542;BME280;63015;45.378;20.360;2023-02-15T06:25:35;102559.44;;;-0.19;77.81
74542;BME280;63015;45.378;20.360;2023-02-15T06:27:35;102560.31;;;-0.19;77.60
74542;BME280;63015;45.378;20.360;2023-02-15T06:29:36;102556.16;;;-0.06;76.89
74542;BME280;63015;45.378;20.360;2023-02-15T06:31:36;102553.41;;;0.03;76.83
74542;BME280;63015;45.378;20.360;2023-02-15T06:33:37;102563.13;;;0.19;76.16
74542;BME280;63015;45.378;20.360;2023-02-15T06:35:38;102560.19;;;0.36;75.44
74542;BME280;63015;45.378;20.360;2023-02-15T06:37:39;102552.16;;;0.55;75.18
74542;BME280;63015;45.378;20.360;2023-02-15T06:39:39;102555.75;;;0.69;74.61
74542;BME280;63015;45.378;20.360;2023-02-15T06:41:40;102563.03;;;0.87;74.70
74542;BME280;63015;45.378;20.360;2023-02-15T06:43:40;102557.66;;;1.07;74.11
74542;BME280;63015;45.378;20.360;2023-02-15T06:45:41;102558.88;;;1.24;73.88
74542;BME280;63015;45.378;20.360;2023-02-15T06:47:42;102543.66;;;1.39;73.39
74542;BME280;63015;45.378;20.360;2023-02-15T06:49:43;102554.22;;;1.56;72.97
74542;BME280;63015;45.378;20.360;2023-02-15T06:51:43;102551.81;;;1.71;72.80
74542;BME280;63015;45.378;20.360;2023-02-15T06:53:44;102562.06;;;1.83;72.27
74542;BME280;63015;45.378;20.360;2023-02-15T06:55:44;102553.41;;;1.94;72.19
74542;BME280;63015;45.378;20.360;2023-02-15T06:57:45;102556.69;;;2.05;71.87
74542;BME280;63015;45.378;20.360;2023-02-15T06:59:45;102554.88;;;2.16;71.81
74542;BME280;63015;45.378;20.360;2023-02-15T07:01:46;102554.44;;;2.35;71.37
74542;BME280;63015;45.378;20.360;2023-02-15T07:03:46;102554.63;;;2.38;70.70
74542;BME280;63015;45.378;20.360;2023-02-15T07:05:47;102556.53;;;2.40;70.18
74542;BME280;63015;45.378;20.360;2023-02-15T07:07:49;102552.28;;;2.54;70.22
74542;BME280;63015;45.378;20.360;2023-02-15T07:09:49;102557.72;;;2.59;70.04
74542;BME280;63015;45.378;20.360;2023-02-15T07:11:50;102555.50;;;2.90;70.31
74542;BME280;63015;45.378;20.360;2023-02-15T07:14:09;102543.69;;;3.07;69.56
74542;BME280;63015;45.378;20.360;2023-02-15T07:16:10;102546.66;;;3.13;69.29
74542;BME280;63015;45.378;20.360;2023-02-15T07:18:11;102550.53;;;3.07;69.20
74542;BME280;63015;45.378;20.360;2023-02-15T07:20:18;102561.94;;;3.10;68.54
74542;BME280;63015;45.378;20.360;2023-02-15T07:22:19;102560.50;;;3.29;68.37
74542;BME280;63015;45.378;20.360;2023-02-15T07:24:19;102554.53;;;3.43;68.86
74542;BME280;63015;45.378;20.360;2023-02-15T07:26:20;102560.47;;;3.56;67.55
74542;BME280;63015;45.378;20.360;2023-02-15T07:28:20;102551.81;;;3.69;68.12
74542;BME280;63015;45.378;20.360;2023-02-15T07:30:22;102549.84;;;3.93;67.55
74542;BME280;63015;45.378;20.360;2023-02-15T07:32:22;102551.25;;;4.03;67.78
74542;BME280;63015;45.378;20.360;2023-02-15T07:34:23;102542.81;;;4.05;66.42
74542;BME280;63015;45.378;20.360;2023-02-15T07:36:23;102553.56;;;3.98;66.72
74542;BME280;63015;45.378;20.360;2023-02-15T07:38:25;102543.22;;;4.26;66.83
74542;BME280;63015;45.378;20.360;2023-02-15T07:40:26;102547.72;;;4.45;66.63
74542;BME280;63015;45.378;20.360;2023-02-15T07:42:27;102551.31;;;4.63;66.34
74542;BME280;63015;45.378;20.360;2023-02-15T07:44:27;102547.47;;;4.86;66.34
74542;BME280;63015;45.378;20.360;2023-02-15T07:46:28;102544.31;;;5.06;65.72
74542;BME280;63015;45.378;20.360;2023-02-15T07:48:28;102544.47;;;5.09;65.55
74542;BME280;63015;45.378;20.360;2023-02-15T07:50:29;102538.34;;;5.24;65.85
74542;BME280;63015;45.378;20.360;2023-02-15T07:52:30;102545.38;;;5.26;64.98
74542;BME280;63015;45.378;20.360;2023-02-15T07:54:31;102537.84;;;5.63;64.30
74542;BME280;63015;45.378;20.360;2023-02-15T07:56:31;102540.03;;;5.38;64.95
74542;BME280;63015;45.378;20.360;2023-02-15T07:58:33;102542.19;;;5.47;64.35
74542;BME280;63015;45.378;20.360;2023-02-15T08:00:52;102544.88;;;5.49;65.09
74542;BME280;63015;45.378;20.360;2023-02-15T08:02:58;102535.97;;;5.43;64.61
74542;BME280;63015;45.378;20.360;2023-02-15T08:05:14;102538.50;;;5.91;64.65
74542;BME280;63015;45.378;20.360;2023-02-15T08:07:14;102536.50;;;5.69;63.47
74542;BME280;63015;45.378;20.360;2023-02-15T08:09:15;102546.34;;;5.93;62.87
74542;BME280;63015;45.378;20.360;2023-02-15T08:11:22;102540.19;;;5.91;62.46
74542;BME280;63015;45.378;20.360;2023-02-15T08:13:26;102538.72;;;5.96;62.49
74542;BME280;63015;45.378;20.360;2023-02-15T08:15:27;102534.38;;;6.46;62.96
74542;BME280;63015;45.378;20.360;2023-02-15T08:17:27;102531.66;;;6.61;61.82
74542;BME280;63015;45.378;20.360;2023-02-15T08:19:32;102531.13;;;6.86;61.35
74542;BME280;63015;45.378;20.360;2023-02-15T08:21:34;102535.06;;;6.96;61.68
74542;BME280;63015;45.378;20.360;2023-02-15T08:23:35;102535.94;;;6.79;59.50
74542;BME280;63015;45.378;20.360;2023-02-15T08:25:35;102528.78;;;6.91;61.28
74542;BME280;63015;45.378;20.360;2023-02-15T08:27:36;102534.31;;;7.17;59.43
74542;BME280;63015;45.378;20.360;2023-02-15T08:29:37;102543.22;;;7.41;60.66
74542;BME280;63015;45.378;20.360;2023-02-15T08:31:39;102532.97;;;7.63;59.82
74542;BME280;63015;45.378;20.360;2023-02-15T08:33:43;102535.78;;;7.30;59.93
74542;BME280;63015;45.378;20.360;2023-02-15T08:35:44;102532.09;;;7.44;60.03
74542;BME280;63015;45.378;20.360;2023-02-15T08:37:44;102533.56;;;7.57;60.02
74542;BME280;63015;45.378;20.360;2023-02-15T08:39:45;102529.09;;;7.74;59.53
74542;BME280;63015;45.378;20.360;2023-02-15T08:41:47;102533.38;;;7.72;59.76
74542;BME280;63015;45.378;20.360;2023-02-15T08:43:49;102530.50;;;8.05;58.97
74542;BME280;63015;45.378;20.360;2023-02-15T08:45:51;102524.50;;;8.27;58.81
74542;BME280;63015;45.378;20.360;2023-02-15T08:47:52;102530.94;;;8.57;58.15
74542;BME280;63015;45.378;20.360;2023-02-15T08:49:53;102528.09;;;8.50;56.68
74542;BME280;63015;45.378;20.360;2023-02-15T08:51:54;102525.06;;;8.83;57.19
74542;BME280;63015;45.378;20.360;2023-02-15T08:53:57;102523.44;;;8.85;57.28
74542;BME280;63015;45.378;20.360;2023-02-15T08:55:58;102526.56;;;8.99;56.96
74542;BME280;63015;45.378;20.360;2023-02-15T08:57:59;102525.34;;;9.12;56.20
74542;BME280;63015;45.378;20.360;2023-02-15T08:59:59;102528.41;;;9.02;56.46
74542;BME280;63015;45.378;20.360;2023-02-15T09:02:00;102523.91;;;9.20;55.51
74542;BME280;63015;45.378;20.360;2023-02-15T09:04:05;102525.78;;;9.25;55.46
74542;BME280;63015;45.378;20.360;2023-02-15T09:06:08;102535.81;;;8.70;55.94
74542;BME280;63015;45.378;20.360;2023-02-15T09:08:09;102536.97;;;8.99;56.43
74542;BME280;63015;45.378;20.360;2023-02-15T09:10:09;102537.13;;;8.81;56.29
74542;BME280;63015;45.378;20.360;2023-02-15T09:12:10;102540.81;;;8.86;56.32
74542;BME280;63015;45.378;20.360;2023-02-15T09:14:16;102539.56;;;8.99;55.98
74542;BME280;63015;45.378;20.360;2023-02-15T09:16:17;102538.97;;;9.52;55.74
74542;BME280;63015;45.378;20.360;2023-02-15T09:18:17;102541.94;;;9.85;54.94
74542;BME280;63015;45.378;20.360;2023-02-15T09:20:18;102537.09;;;9.96;54.40
74542;BME280;63015;45.378;20.360;2023-02-15T09:22:19;102534.03;;;10.08;53.85
74542;BME280;63015;45.378;20.360;2023-02-15T09:24:19;102539.53;;;9.92;53.29
74542;BME280;63015;45.378;20.360;2023-02-15T09:26:21;102540.47;;;9.94;53.32
74542;BME280;63015;45.378;20.360;2023-02-15T09:28:22;102538.41;;;10.09;53.07
74542;BME280;63015;45.378;20.360;2023-02-15T09:30:23;102533.47;;;10.17;53.52
74542;BME280;63015;45.378;20.360;2023-02-15T09:32:23;102523.66;;;10.10;52.80
74542;BME280;63015;45.378;20.360;2023-02-15T09:34:24;102521.97;;;10.62;53.04
74542;BME280;63015;45.378;20.360;2023-02-15T09:36:27;102523.34;;;10.78;52.26
74542;BME280;63015;45.378;20.360;2023-02-15T09:38:28;102520.53;;;10.20;51.06
74542;BME280;63015;45.378;20.360;2023-02-15T09:40:34;102517.81;;;10.41;51.54
74542;BME280;63015;45.378;20.360;2023-02-15T09:54:04;102504.22;;;10.77;50.39
74542;BME280;63015;45.378;20.360;2023-02-15T09:58:52;102501.06;;;10.88;50.87
74542;BME280;63015;45.378;20.360;2023-02-15T10:01:13;102503.38;;;10.78;49.83
74542;BME280;63015;45.378;20.360;2023-02-15T10:03:23;102499.97;;;10.81;50.20
74542;BME280;63015;45.378;20.360;2023-02-15T10:19:40;102476.97;;;10.96;48.83
74542;BME280;63015;45.378;20.360;2023-02-15T10:26:28;102471.88;;;10.72;49.18
74542;BME280;63015;45.378;20.360;2023-02-15T10:28:49;102468.09;;;10.90;49.35
74542;BME280;63015;45.378;20.360;2023-02-15T10:33:42;102456.06;;;10.95;48.25
74542;BME280;63015;45.378;20.360;2023-02-15T10:38:41;102444.47;;;10.85;48.14
74542;BME280;63015;45.378;20.360;2023-02-15T11:03:52;102421.31;;;11.92;45.22
74542;BME280;63015;45.378;20.360;2023-02-15T11:06:30;102420.59;;;11.65;44.93
74542;BME280;63015;45.378;20.360;2023-02-15T11:08:38;102416.03;;;11.25;45.37
74542;BME280;63015;45.378;20.360;2023-02-15T11:12:47;102402.09;;;11.56;45.91
74542;BME280;63015;45.378;20.360;2023-02-15T11:15:03;102401.00;;;11.80;45.41
74542;BME280;63015;45.378;20.360;2023-02-15T11:17:12;102399.03;;;12.06;45.11
74542;BME280;63015;45.378;20.360;2023-02-15T11:21:22;102401.63;;;12.43;45.08
74542;BME280;63015;45.378;20.360;2023-02-15T11:23:25;102400.31;;;12.60;44.53
74542;BME280;63015;45.378;20.360;2023-02-15T11:25:32;102397.66;;;12.59;44.29
74542;BME280;63015;45.378;20.360;2023-02-15T11:27:34;102395.31;;;12.31;42.69
74542;BME280;63015;45.378;20.360;2023-02-15T11:29:54;102389.44;;;12.42;43.58
74542;BME280;63015;45.378;20.360;2023-02-15T11:32:01;102393.28;;;12.59;43.84
74542;BME280;63015;45.378;20.360;2023-02-15T11:34:10;102380.72;;;12.43;42.56
74542;BME280;63015;45.378;20.360;2023-02-15T11:36:17;102387.22;;;12.60;43.04
74542;BME280;63015;45.378;20.360;2023-02-15T11:38:24;102382.00;;;12.60;43.10
74542;BME280;63015;45.378;20.360;2023-02-15T11:40:49;102379.09;;;12.48;41.52
74542;BME280;63015;45.378;20.360;2023-02-15T11:42:55;102376.00;;;12.26;42.42
74542;BME280;63015;45.378;20.360;2023-02-15T11:46:57;102368.03;;;12.60;43.07
74542;BME280;63015;45.378;20.360;2023-02-15T11:48:57;102370.53;;;12.54;42.68
74542;BME280;63015;45.378;20.360;2023-02-15T11:51:00;102364.63;;;12.64;42.61
74542;BME280;63015;45.378;20.360;2023-02-15T11:53:06;102369.22;;;12.74;42.04
74542;BME280;63015;45.378;20.360;2023-02-15T11:55:14;102366.75;;;12.82;42.52
74542;BME280;63015;45.378;20.360;2023-02-15T11:57:37;102360.94;;;12.97;41.33
74542;BME280;63015;45.378;20.360;2023-02-15T11:59:43;102367.28;;;13.08;41.87
74542;BME280;63015;45.378;20.360;2023-02-15T12:01:46;102354.72;;;12.92;42.67
74542;BME280;63015;45.378;20.360;2023-02-15T12:03:49;102357.16;;;13.25;42.18
74542;BME280;63015;45.378;20.360;2023-02-15T12:05:57;102356.66;;;13.43;41.28
74542;BME280;63015;45.378;20.360;2023-02-15T12:08:03;102353.56;;;13.20;40.84
74542;BME280;63015;45.378;20.360;2023-02-15T12:10:19;102358.31;;;13.38;41.91
74542;BME280;63015;45.378;20.360;2023-02-15T12:14:51;102356.25;;;13.23;40.15
74542;BME280;63015;45.378;20.360;2023-02-15T12:16:53;102349.84;;;13.55;41.51